createdAt,value
2023-02-19T00:04:43.850Z,41051.06
2023-02-19T00:09:48.958Z,40975.28
2023-02-19T00:14:52.679Z,41021.16
2023-02-19T00:19:56.378Z,41043.09
2023-02-19T00:25:01.546Z,41045.09
2023-02-19T00:30:05.692Z,40811.75
2023-02-19T00:35:09.507Z,40727.97
2023-02-19T00:40:14.651Z,40632.25
2023-02-19T00:45:18.464Z,40518.59
2023-02-19T00:50:22.196Z,40480.69
2023-02-19T00:55:27.472Z,40630.25
2023-02-19T01:00:31.273Z,40698.06
2023-02-19T01:05:34.923Z,40751.91
2023-02-19T01:10:40.020Z,40634.25
2023-02-19T01:15:43.931Z,40454.78
2023-02-19T01:20:47.754Z,40271.31
2023-02-19T01:25:52.894Z,40149.69
2023-02-19T01:30:56.680Z,39980.19
2023-02-19T01:36:00.382Z,39960.25
2023-02-19T01:41:07.852Z,39866.56
2023-02-19T01:46:11.679Z,39780.81
2023-02-19T01:51:21.305Z,39727.00
2023-02-19T01:56:28.238Z,39521.63
2023-02-19T02:01:32.393Z,39471.78
2023-02-19T02:06:43.546Z,39302.34
2023-02-19T02:11:50.953Z,39276.44
2023-02-19T02:17:01.676Z,39262.47
2023-02-19T02:22:14.304Z,39248.53
2023-02-19T02:27:42.046Z,39224.59
2023-02-19T02:32:56.255Z,39158.81
2023-02-19T02:38:04.278Z,39156.81
2023-02-19T02:43:08.820Z,39085.06
2023-02-19T02:48:30.044Z,39087.03
2023-02-19T02:53:55.878Z,39079.06
2023-02-19T02:59:02.404Z,39091.03
2023-02-19T03:09:56.879Z,39009.31
2023-02-19T03:15:24.388Z,38947.50
2023-02-19T03:20:35.421Z,38923.59
2023-02-19T03:25:58.995Z,38879.72
2023-02-19T03:31:16.093Z,38784.06
2023-02-19T03:36:26.782Z,38788.03
2023-02-19T03:41:38.078Z,38772.09
2023-02-19T03:46:48.611Z,38742.19
2023-02-19T03:51:59.228Z,38668.44
2023-02-19T03:57:08.040Z,38672.44
2023-02-19T04:02:14.890Z,38614.63
2023-02-19T04:07:19.232Z,38656.50
2023-02-19T04:12:25.448Z,38646.53
2023-02-19T04:17:35.542Z,38682.41
2023-02-19T04:22:41.292Z,38813.97
2023-02-19T04:27:47.320Z,39033.22
2023-02-19T04:32:50.941Z,39063.13
2023-02-19T04:37:54.717Z,39122.94
2023-02-19T04:42:59.765Z,39126.91
2023-02-19T04:48:03.422Z,39236.56
2023-02-19T04:53:07.433Z,39246.53
2023-02-19T04:58:12.797Z,39256.50
2023-02-19T05:03:16.475Z,39266.47
2023-02-19T05:08:20.754Z,39302.34
2023-02-19T05:13:25.866Z,39294.38
2023-02-19T05:18:30.937Z,39280.41
2023-02-19T05:23:34.585Z,39280.41
2023-02-19T05:28:39.850Z,39314.31
2023-02-19T05:33:44.404Z,39266.47
2023-02-19T05:38:49.132Z,39228.59
2023-02-19T05:43:55.019Z,39312.31
2023-02-19T05:48:59.353Z,39228.59
2023-02-19T05:54:03.019Z,39294.38
2023-02-19T05:59:09.924Z,39256.50
2023-02-19T06:04:15.607Z,39286.41
2023-02-19T06:09:19.577Z,39342.22
2023-02-19T06:14:24.674Z,39364.16
2023-02-19T06:19:28.428Z,39417.97
2023-02-19T06:24:32.207Z,39394.03
2023-02-19T06:29:38.372Z,39471.78
2023-02-19T06:34:42.123Z,39412.00
2023-02-19T06:39:45.972Z,39501.69
2023-02-19T06:44:51.030Z,39609.34
2023-02-19T06:49:54.729Z,39689.09
2023-02-19T06:54:58.431Z,39645.25
2023-02-19T07:00:04.725Z,39681.13
2023-02-19T07:05:08.612Z,39806.75
2023-02-19T07:10:12.462Z,39950.28
2023-02-19T07:15:17.741Z,40024.06
2023-02-19T07:20:21.438Z,40099.84
2023-02-19T07:25:25.111Z,40133.75
2023-02-19T07:30:30.402Z,40020.09
2023-02-19T07:35:34.222Z,39934.34
2023-02-19T07:40:40.566Z,40111.81
2023-02-19T07:45:46.675Z,40153.69
2023-02-19T07:50:53.982Z,40163.66
2023-02-19T07:56:02.703Z,40051.97
2023-02-19T08:01:13.181Z,40219.47
2023-02-19T08:06:17.516Z,40067.94
2023-02-19T08:11:38.724Z,39984.19
2023-02-19T08:16:51.705Z,40018.09
2023-02-19T08:21:58.462Z,40191.56
2023-02-19T08:27:03.813Z,40020.09
2023-02-19T08:32:13.672Z,40091.88
2023-02-19T08:37:19.154Z,40199.53
2023-02-19T08:42:23.490Z,40448.78
2023-02-19T08:47:28.716Z,40446.81
2023-02-19T08:52:32.637Z,40371.03
2023-02-19T08:57:37.675Z,40295.25
2023-02-19T09:02:42.891Z,40215.50
2023-02-19T09:07:46.580Z,40181.59
2023-02-19T09:12:50.533Z,40171.63
2023-02-19T09:17:55.684Z,40183.59
2023-02-19T09:22:59.877Z,40155.66
2023-02-19T09:28:03.730Z,40173.63
2023-02-19T09:33:09.478Z,40486.69
2023-02-19T09:38:13.367Z,40724.00
2023-02-19T09:43:20.903Z,40871.56
2023-02-19T09:48:26.006Z,40961.31
2023-02-19T09:53:36.391Z,41025.13
2023-02-19T09:58:48.215Z,41079.00
2023-02-19T10:03:53.628Z,41092.94
2023-02-19T10:33:50.716Z,41501.84
2023-02-19T10:38:56.086Z,41655.44
2023-02-19T10:44:13.951Z,41813.00
2023-02-19T10:49:26.022Z,42108.25
2023-02-19T10:54:32.845Z,42110.25
2023-02-19T10:59:50.604Z,41777.09
2023-02-19T11:05:16.509Z,41757.16
2023-02-19T11:10:29.100Z,41882.84
2023-02-19T11:15:35.981Z,42092.28
2023-02-19T11:20:50.114Z,42371.59
2023-02-19T11:25:56.531Z,42621.00
2023-02-19T11:31:24.318Z,42619.00
2023-02-19T11:36:35.166Z,42489.31
2023-02-19T11:47:53.027Z,42353.66
2023-02-19T11:59:39.649Z,42293.78
2023-02-19T12:05:13.125Z,42241.91
2023-02-19T12:10:26.300Z,42229.94
2023-02-19T12:22:28.028Z,42016.50
2023-02-19T12:27:48.817Z,41942.69
2023-02-19T12:40:16.944Z,41964.63
2023-02-19T12:45:28.215Z,41912.75
2023-02-19T12:50:34.266Z,41964.63
2023-02-19T12:55:43.519Z,42008.50
2023-02-19T13:00:54.132Z,42144.16
2023-02-19T13:06:04.820Z,42297.78
2023-02-19T13:11:16.412Z,43004.09
2023-02-19T13:16:23.613Z,43083.91
2023-02-19T13:21:48.824Z,43173.72
2023-02-19T13:27:09.181Z,43129.81
2023-02-19T13:38:13.407Z,43491.00
2023-02-19T13:49:45.241Z,44083.75
2023-02-19T14:02:18.774Z,44267.41
2023-02-19T14:07:55.724Z,44337.25
2023-02-19T14:18:48.137Z,44592.75
2023-02-19T14:23:54.558Z,44520.91
2023-02-19T14:34:46.807Z,44389.16
2023-02-19T14:45:43.715Z,44441.06
2023-02-19T14:57:17.835Z,44700.56
2023-02-19T15:08:24.639Z,44762.44
2023-02-19T15:13:31.060Z,44796.38
2023-02-19T15:24:25.418Z,44812.34
2023-02-19T15:29:31.094Z,44844.28
2023-02-19T15:34:38.398Z,44814.34
2023-02-19T15:39:48.314Z,44730.50
2023-02-19T15:56:51.763Z,44746.47
2023-02-19T16:01:57.042Z,44764.44
2023-02-19T16:14:24.594Z,44734.50
2023-02-19T16:19:31.394Z,44852.28
2023-02-19T16:30:30.935Z,44964.09
2023-02-19T16:35:41.327Z,45000.00
2023-02-19T16:41:08.024Z,45045.94
2023-02-19T16:46:14.689Z,45057.91
2023-02-19T17:04:18.007Z,45095.84
2023-02-19T17:09:22.579Z,45049.94
2023-02-19T17:14:26.759Z,45023.97
2023-02-19T17:19:32.895Z,45016.00
2023-02-19T17:24:38.480Z,44962.09
2023-02-19T17:29:48.711Z,44914.16
2023-02-19T17:35:45.056Z,44792.41
2023-02-19T17:40:49.381Z,44730.50
2023-02-19T17:47:07.309Z,44656.66
2023-02-19T17:59:49.963Z,44638.69
2023-02-19T18:04:55.207Z,44712.53
2023-02-19T18:10:02.881Z,44768.44
2023-02-19T18:21:41.802Z,44884.22
2023-02-19T18:26:46.601Z,44926.16
2023-02-19T18:38:52.651Z,44956.09
2023-02-19T18:43:57.095Z,44972.06
2023-02-19T18:55:46.232Z,45019.97
2023-02-19T19:00:50.895Z,44988.03
2023-02-19T19:05:55.390Z,44966.06
2023-02-19T19:11:00.928Z,44954.09
2023-02-19T19:23:45.353Z,44934.13
2023-02-19T19:28:51.353Z,44916.16
2023-02-19T19:39:39.483Z,44810.34
2023-02-19T19:44:50.130Z,44826.34
2023-02-19T19:49:57.833Z,44824.34
2023-02-19T20:01:07.545Z,44724.53
2023-02-19T20:06:11.774Z,44668.63
2023-02-19T20:17:02.867Z,44566.81
2023-02-19T20:22:08.238Z,44530.88
2023-02-19T20:34:33.226Z,44606.75
2023-02-19T20:39:38.091Z,44600.75
2023-02-19T20:45:32.178Z,44526.88
2023-02-19T20:50:37.968Z,44626.69
2023-02-19T20:55:42.995Z,44596.75
2023-02-19T21:00:47.234Z,44604.75
2023-02-19T21:05:53.051Z,44540.88
2023-02-19T21:10:57.263Z,44490.97
2023-02-19T21:16:02.034Z,44461.03
2023-02-19T21:21:08.990Z,44419.09
2023-02-19T21:26:13.371Z,44496.94
2023-02-19T21:31:17.805Z,44411.13
2023-02-19T21:36:24.454Z,44345.25
2023-02-19T21:41:28.661Z,44283.38
2023-02-19T21:46:34.590Z,44239.44
2023-02-19T21:51:42.046Z,44241.44
2023-02-19T21:56:46.739Z,44155.63
2023-02-19T22:01:51.457Z,44175.56
2023-02-19T22:06:58.187Z,44169.59
2023-02-19T22:12:02.389Z,44143.63
2023-02-19T22:17:06.657Z,44025.88
2023-02-19T22:22:12.229Z,44045.84
2023-02-19T22:27:16.654Z,44001.94
2023-02-19T22:32:20.958Z,43979.97
2023-02-19T22:37:26.706Z,43958.03
2023-02-19T22:42:31.039Z,43934.06
2023-02-19T22:47:35.445Z,43920.09
2023-02-19T22:52:41.110Z,43880.19
2023-02-19T22:57:45.345Z,43862.22
2023-02-19T23:02:49.678Z,43874.19
2023-02-19T23:07:55.702Z,43842.25
2023-02-19T23:12:59.814Z,43862.22
2023-02-19T23:18:06.433Z,43782.38
2023-02-19T23:23:12.029Z,43760.44
2023-02-19T23:28:18.342Z,43862.22
2023-02-19T23:33:22.434Z,43898.16
2023-02-19T23:38:28.290Z,43932.06
2023-02-19T23:43:33.064Z,44051.81
2023-02-19T23:48:37.414Z,43999.94
2023-02-19T23:53:43.251Z,44105.72
2023-02-19T23:58:47.431Z,43972.00
